Terminal Aerodrome Forecast
Issued by NWS Rapid City, SD

Home | Current Version | Previous Version | Graphics & Text | Print | Product List | Glossary On
Versions: 1 2 3 4 5 6 7 8 9 10 11 12 13 14 15 16 17 18 19 20 21 22 23 24 25 26 27 28 29
000
FTUS43 KUNR 252321
TAFRAP
TAF
KRAP 252321Z 2600/2624 36011KT P6SM OVC027
     FM260600 03008KT P6SM -SHRA OVC019
     FM261000 03013KT 5SM -RA BR OVC006
     FM261200 02011KT 1SM -RA BR OVC004
     FM261700 36015KT 3SM -RA BR OVC009=

USA.gov is the U.S. government's official web portal to all federal, state and local government web resources and services.